首页
METAR-TAF:

METAR-TAF

机场 :

蒙特利尔特鲁多, 魁北克, 加拿大

蒙特利尔皮埃尔·埃利奥特·特鲁多国际机场

纬度: 45-28N, 经度: 073-45W, 海拔: 31米

当前天气观测

该预报发布于25分钟前的23:44 UTC
风速10节,风向南转西南
温度 -8°C
湿度 79%
气压 1020 hPa
能見度: 16.1公里
少量云层高于3500英尺
阴天层高于14000英尺
小雪

METAR: CYUL 172344Z 21010KT 10SM -SN FEW035 OVC140 M08/M11 A3013 RMK SC2AC6 SLP207

时间: 19:09 (00:09 UTC)

预报

该预报发布于31分钟前的23:38 UTC
预报有效从18日的 00点(UTC)到 18日的 24点(UTC)
风速8节,风向南转西南
能見度: 10公里
多云层高于3000英尺
多云层高于14000英尺
阴天层高于18000英尺
短暂存在
从 18日的 00点(UTC)到 18日的 15点(UTC)
能見度: 4.8公里
多云层高于2000英尺
阴天层高于15000英尺
小雪
成为
从 18日的 01点(UTC)到 18日的 03点(UTC)
风速12节,风向西南
从 18日的 1500点(UTC)
风速12节,风向西转西南,有时为22节阵风
能見度: 10公里
阴天层高于2500英尺

TAF: CYUL 172338Z 1800/1824 21008KT P6SM BKN030 BKN140 OVC180 TEMPO 1800/1815 3SM -SN BKN020 OVC150 BECMG 1801/1803 22012KT FM181500 24012G22KT P6SM OVC025 RMK NXT FCST BY 180300Z

超过4000个机场的气象观测和天气预报(METAR&TAF报告)。

可查询的气象台以黄色和红色小点在地图上表示。

将鼠标移到小点上方,可查看气象台名称。

然后点击查看天气观测和预报。

如需切换地图:点击带黑十字的绿色按钮放大地图;点击带横线的绿色按钮缩小地图;或者点击绿色箭头查看邻近地区的地图。


METAR-TAF: